Time;durP1;ratioP1;P1;durP2;ratioP2;P2;SDS_P1;SDS_P2;PMS_P1;PMS_P2;Temp;Humidity;BMP_temperature;BMP_pressure;BME280_temperature;BME280_humidity;BME280_pressure;Samples;Min_cycle;Max_cycle;Signal;HPM_P1;HPM_P2
2021/08/16 00:00:20;;;;;;;15.02;6.70;;;22.00;74.70;;;;;;5043188;28;20025;-77
2021/08/16 00:02:46;;;;;;;14.63;6.38;;;22.00;75.30;;;;;;5047983;28;20033;-76
2021/08/16 00:05:14;;;;;;;15.13;7.65;;;22.00;75.70;;;;;;5051090;28;20025;-77
2021/08/16 00:07:40;;;;;;;15.60;6.95;;;22.00;75.70;;;;;;5052246;28;20033;-77
2021/08/16 00:10:06;;;;;;;20.35;8.30;;;22.00;75.60;;;;;;5051915;28;20472;-76
2021/08/16 00:12:32;;;;;;;18.13;6.28;;;21.90;76.00;;;;;;5052452;28;20044;-77
2021/08/16 00:14:58;;;;;;;15.25;8.38;;;21.90;75.80;;;;;;5051888;28;20514;-77
2021/08/16 00:17:24;;;;;;;16.17;7.65;;;21.90;76.30;;;;;;5048236;28;20029;-77
2021/08/16 00:19:50;;;;;;;13.65;7.35;;;21.90;76.10;;;;;;5050711;28;20022;-74
2021/08/16 00:22:16;;;;;;;18.50;6.65;;;21.90;75.80;;;;;;5052443;28;20025;-77
2021/08/16 00:24:44;;;;;;;14.00;6.88;;;21.90;75.60;;;;;;5051531;28;20029;-77
2021/08/16 00:27:10;;;;;;;8.10;4.10;;;21.90;75.80;;;;;;5051827;28;20029;-77
2021/08/16 00:29:36;;;;;;;19.15;3.35;;;21.90;75.40;;;;;;5052709;28;20028;-77
2021/08/16 00:32:01;;;;;;;8.95;3.58;;;21.80;76.00;;;;;;5045343;28;20457;-77
2021/08/16 00:34:27;;;;;;;9.68;4.90;;;21.70;76.50;;;;;;5047143;28;20104;-77
2021/08/16 00:36:53;;;;;;;11.10;3.90;;;21.70;77.10;;;;;;5045202;28;20468;-77
2021/08/16 00:39:19;;;;;;;8.27;2.92;;;21.60;77.00;;;;;;5051836;28;20075;-77
2021/08/16 00:41:48;;;;;;;15.90;5.05;;;21.70;76.90;;;;;;5050836;28;20074;-77
2021/08/16 00:44:14;;;;;;;6.18;3.08;;;21.60;77.60;;;;;;5045138;28;20436;-77
2021/08/16 00:46:40;;;;;;;6.65;2.40;;;21.50;77.40;;;;;;5050178;28;20072;-77
2021/08/16 00:49:06;;;;;;;9.10;4.85;;;21.50;77.40;;;;;;5046353;28;20041;-77
2021/08/16 00:51:34;;;;;;;12.95;4.70;;;21.50;77.80;;;;;;5046643;28;20036;-77
2021/08/16 00:54:05;;;;;;;8.68;3.88;;;21.50;78.00;;;;;;5050977;28;20070;-77
2021/08/16 00:56:31;;;;;;;6.75;2.65;;;21.50;78.00;;;;;;5042897;28;20037;-77
2021/08/16 00:59:00;;;;;;;2.83;1.77;;;21.40;77.50;;;;;;5046767;28;20033;-76
2021/08/16 01:01:26;;;;;;;3.60;1.65;;;21.40;77.20;;;;;;5045520;28;20034;-77
2021/08/16 01:03:55;;;;;;;4.82;1.77;;;21.40;77.30;;;;;;5050178;28;20037;-77
2021/08/16 01:06:21;;;;;;;4.97;2.35;;;21.40;77.40;;;;;;5048843;28;20116;-76
2021/08/16 01:08:48;;;;;;;2.10;1.08;;;21.30;77.70;;;;;;5042473;28;20148;-77
2021/08/16 01:11:15;;;;;;;5.53;1.92;;;21.30;77.10;;;;;;5047336;28;20029;-77
2021/08/16 01:13:42;;;;;;;2.50;1.27;;;21.30;77.30;;;;;;5040926;28;20041;-77
2021/08/16 01:16:08;;;;;;;1.98;1.10;;;21.30;77.30;;;;;;5049191;28;20163;-77
2021/08/16 01:18:34;;;;;;;6.40;1.17;;;21.20;77.30;;;;;;5052740;28;20484;-77
2021/08/16 01:21:05;;;;;;;2.78;0.98;;;21.20;77.30;;;;;;5037366;28;20051;-77
2021/08/16 01:23:31;;;;;;;1.35;0.70;;;21.10;77.30;;;;;;5042708;28;20041;-77
2021/08/16 01:25:57;;;;;;;2.15;1.48;;;21.10;77.30;;;;;;5044595;28;20029;-77
2021/08/16 01:28:24;;;;;;;4.30;1.63;;;21.10;77.50;;;;;;5047104;28;20053;-77
2021/08/16 01:30:55;;;;;;;7.75;1.80;;;21.10;77.60;;;;;;5050427;28;20029;-77
2021/08/16 01:33:22;;;;;;;3.10;1.30;;;21.00;77.80;;;;;;5045541;28;20470;-77
2021/08/16 01:35:48;;;;;;;2.15;0.85;;;21.10;78.00;;;;;;5050184;28;20416;-77
2021/08/16 01:38:14;;;;;;;11.38;1.90;;;21.00;78.20;;;;;;5051093;28;20415;-80
2021/08/16 01:40:39;;;;;;;6.13;1.92;;;21.00;78.40;;;;;;5049601;28;20112;-84
2021/08/16 01:43:05;;;;;;;7.60;1.73;;;21.00;78.60;;;;;;5046911;28;20419;-79
2021/08/16 01:45:31;;;;;;;4.18;1.30;;;20.90;78.80;;;;;;5051940;28;20423;-79
2021/08/16 01:47:57;;;;;;;7.03;2.28;;;20.90;79.00;;;;;;5050490;28;20081;-77
2021/08/16 01:50:26;;;;;;;7.18;1.90;;;20.90;79.30;;;;;;5048210;28;20105;-77
2021/08/16 01:52:52;;;;;;;3.80;1.70;;;20.80;79.20;;;;;;5037567;28;20187;-77
2021/08/16 01:55:17;;;;;;;7.18;2.13;;;20.80;79.40;;;;;;5052180;28;20539;-77
2021/08/16 01:57:47;;;;;;;7.82;1.63;;;20.80;79.70;;;;;;5051070;28;20095;-77
2021/08/16 02:00:15;;;;;;;4.35;1.60;;;20.80;79.70;;;;;;5050948;28;20040;-77
2021/08/16 02:02:41;;;;;;;7.57;2.40;;;20.80;79.70;;;;;;5051035;28;20094;-77
2021/08/16 02:05:08;;;;;;;17.02;2.92;;;20.80;79.90;;;;;;5048813;28;20043;-77
2021/08/16 02:07:36;;;;;;;6.72;2.03;;;20.70;80.00;;;;;;5050645;28;20021;-77
2021/08/16 02:10:04;;;;;;;3.88;2.13;;;20.80;79.70;;;;;;5034862;28;20036;-77
2021/08/16 02:12:29;;;;;;;6.65;1.73;;;20.70;79.90;;;;;;5049378;28;20041;-77
2021/08/16 02:14:55;;;;;;;9.02;2.72;;;20.70;80.00;;;;;;5050377;28;20408;-77
2021/08/16 02:17:21;;;;;;;7.25;2.08;;;20.80;80.30;;;;;;5050733;28;20021;-78
2021/08/16 02:19:47;;;;;;;3.90;1.52;;;20.70;80.10;;;;;;5032647;28;20477;-77
2021/08/16 02:22:15;;;;;;;7.85;2.65;;;20.70;80.00;;;;;;5044787;28;20037;-77
2021/08/16 02:24:40;;;;;;;10.60;2.40;;;20.70;80.20;;;;;;5048105;28;20102;-77
2021/08/16 02:27:06;;;;;;;6.55;2.70;;;20.60;80.20;;;;;;5050734;28;20079;-77
2021/08/16 02:29:33;;;;;;;3.20;1.52;;;20.60;80.60;;;;;;5048316;28;20388;-77
2021/08/16 02:31:59;;;;;;;10.57;2.80;;;20.60;80.60;;;;;;5051922;28;20392;-77
2021/08/16 02:34:24;;;;;;;4.03;1.75;;;20.60;80.70;;;;;;5054116;28;20033;-77
2021/08/16 02:36:50;;;;;;;9.27;3.15;;;20.60;80.60;;;;;;5055440;28;20028;-77
2021/08/16 02:39:15;;;;;;;9.57;2.78;;;20.60;80.90;;;;;;5054391;28;20033;-77
2021/08/16 02:41:41;;;;;;;17.63;2.80;;;20.60;81.10;;;;;;5054653;28;20025;-77
2021/08/16 02:44:07;;;;;;;2.13;1.33;;;20.50;80.80;;;;;;5046674;28;20040;-76
2021/08/16 02:46:33;;;;;;;4.45;1.88;;;20.60;80.70;;;;;;5040897;28;20151;-76
2021/08/16 02:48:59;;;;;;;4.57;1.60;;;20.60;81.00;;;;;;5039507;28;20069;-77
2021/08/16 02:51:26;;;;;;;5.20;2.25;;;20.60;80.90;;;;;;5040306;28;20043;-77
2021/08/16 02:53:52;;;;;;;6.50;2.83;;;20.60;81.00;;;;;;5045470;28;20127;-78
2021/08/16 02:56:18;;;;;;;7.70;3.10;;;20.50;81.30;;;;;;5050243;28;20025;-77
2021/08/16 02:58:46;;;;;;;5.63;1.75;;;20.50;81.40;;;;;;5051892;28;20404;-77
2021/08/16 03:01:12;;;;;;;1.85;1.20;;;20.50;81.30;;;;;;5039933;28;20033;-77
2021/08/16 03:03:38;;;;;;;9.48;2.60;;;20.50;81.40;;;;;;5040495;28;20025;-77
2021/08/16 03:06:04;;;;;;;6.10;1.80;;;20.40;81.70;;;;;;5054054;28;20480;-77
2021/08/16 03:08:32;;;;;;;6.95;2.33;;;20.40;81.50;;;;;;5047613;28;20044;-77
2021/08/16 03:10:58;;;;;;;8.60;3.05;;;20.40;81.50;;;;;;5049490;28;20079;-77
2021/08/16 03:13:23;;;;;;;4.85;1.70;;;20.40;81.90;;;;;;5036261;28;20049;-77
2021/08/16 03:15:49;;;;;;;12.15;2.80;;;20.40;81.60;;;;;;5049812;28;20033;-77
2021/08/16 03:18:15;;;;;;;9.13;1.63;;;20.40;82.00;;;;;;5054942;28;20032;-77
2021/08/16 03:20:40;;;;;;;5.15;1.70;;;20.40;81.80;;;;;;5040962;28;20034;-77
2021/08/16 03:23:06;;;;;;;4.55;1.02;;;20.40;81.90;;;;;;5047907;28;20025;-77
2021/08/16 03:25:31;;;;;;;5.95;2.20;;;20.30;81.90;;;;;;5048824;28;20484;-77
2021/08/16 03:27:57;;;;;;;3.90;1.65;;;20.40;82.10;;;;;;5052489;28;20411;-78
2021/08/16 03:30:23;;;;;;;2.67;1.70;;;20.40;81.80;;;;;;5054675;28;20456;-77
2021/08/16 03:32:49;;;;;;;13.65;2.58;;;20.40;81.70;;;;;;5039233;28;20040;-77
2021/08/16 03:35:16;;;;;;;9.63;3.03;;;20.30;81.80;;;;;;5046263;28;20030;-77
2021/08/16 03:37:43;;;;;;;9.68;2.78;;;20.30;81.90;;;;;;5051468;28;20037;-77
2021/08/16 03:40:10;;;;;;;8.23;2.97;;;20.40;81.90;;;;;;5054360;28;20032;-77
2021/08/16 03:42:36;;;;;;;5.90;2.28;;;20.30;82.00;;;;;;5050678;28;20391;-77
2021/08/16 03:45:24;;;;;;;10.70;3.42;;;20.30;81.70;;;;;;5042651;28;20021;-77
2021/08/16 03:47:50;;;;;;;4.30;1.83;;;20.40;81.80;;;;;;5052231;28;20080;-77
2021/08/16 03:50:16;;;;;;;5.90;2.58;;;20.40;81.60;;;;;;5052738;28;20068;-77
2021/08/16 03:52:41;;;;;;;4.00;2.00;;;20.30;81.90;;;;;;5053766;28;20044;-77
2021/08/16 03:55:10;;;;;;;10.55;2.53;;;20.40;81.70;;;;;;5051948;28;20395;-77
2021/08/16 03:57:36;;;;;;;5.40;2.15;;;20.30;81.70;;;;;;5054084;28;20104;-77
2021/08/16 04:00:03;;;;;;;6.30;2.55;;;20.20;81.50;;;;;;5052722;28;20033;-77
2021/08/16 04:02:45;;;;;;;4.32;2.03;;;20.30;81.80;;;;;;5052786;28;20060;-77
2021/08/16 04:05:11;;;;;;;;;;;20.30;81.80;;;;;;5052055;28;20120;-77
2021/08/16 04:07:37;;;;;;;2.40;1.48;;;20.20;81.60;;;;;;5052512;28;19909;-77
2021/08/16 04:10:03;;;;;;;16.20;1.58;;;20.20;81.60;;;;;;5048168;28;20033;-77
2021/08/16 04:12:29;;;;;;;3.60;1.55;;;20.20;81.80;;;;;;5050025;28;20048;-76
2021/08/16 04:14:55;;;;;;;1.10;1.00;;;20.20;81.90;;;;;;5051974;28;20029;-77
2021/08/16 04:17:20;;;;;;;4.85;1.52;;;20.10;81.90;;;;;;5051505;28;20048;-77
2021/08/16 04:19:46;;;;;;;4.57;1.42;;;20.00;81.90;;;;;;5053017;28;20028;-77
2021/08/16 04:22:11;;;;;;;1.55;0.80;;;20.00;81.90;;;;;;5051695;28;20036;-77
2021/08/16 04:24:38;;;;;;;2.10;1.20;;;20.00;81.80;;;;;;5049525;28;20025;-77
2021/08/16 04:27:04;;;;;;;2.53;1.50;;;20.00;81.80;;;;;;5052257;28;20029;-77
2021/08/16 04:29:32;;;;;;;4.22;1.67;;;19.90;81.80;;;;;;5052834;28;20035;-77
2021/08/16 04:32:00;;;;;;;6.82;2.85;;;19.90;81.70;;;;;;5042889;28;20432;-77
2021/08/16 04:34:26;;;;;;;10.43;2.28;;;19.90;81.60;;;;;;5046507;28;20045;-77
2021/08/16 04:36:52;;;;;;;6.90;1.38;;;19.90;81.70;;;;;;5052486;28;20044;-77
2021/08/16 04:39:20;;;;;;;3.13;1.05;;;20.00;81.50;;;;;;5047776;28;20040;-77
2021/08/16 04:41:46;;;;;;;8.32;1.98;;;19.90;81.50;;;;;;5052324;28;20017;-77
2021/08/16 04:44:12;;;;;;;6.93;2.28;;;19.90;81.50;;;;;;5051494;28;20674;-77
2021/08/16 04:46:38;;;;;;;8.57;1.75;;;19.90;81.80;;;;;;5051482;28;20124;-77
2021/08/16 04:49:06;;;;;;;7.82;2.00;;;19.90;81.60;;;;;;5040652;28;20036;-77
2021/08/16 04:51:32;;;;;;;5.38;1.15;;;19.80;81.50;;;;;;5048745;28;20799;-77
2021/08/16 04:53:57;;;;;;;1.80;0.75;;;19.80;82.10;;;;;;5052920;28;20072;-76
2021/08/16 04:56:23;;;;;;;7.00;2.35;;;19.80;81.50;;;;;;5038637;28;20106;-76
2021/08/16 04:58:48;;;;;;;9.23;2.10;;;19.80;81.70;;;;;;5050839;28;20408;-76
2021/08/16 05:01:14;;;;;;;9.23;2.67;;;19.80;81.70;;;;;;5051421;28;20049;-75
2021/08/16 05:03:40;;;;;;;7.28;3.13;;;19.80;81.70;;;;;;5052656;28;20391;-75
2021/08/16 05:06:07;;;;;;;6.93;2.00;;;19.80;81.60;;;;;;5050729;28;20041;-75
2021/08/16 05:08:35;;;;;;;8.38;2.15;;;19.80;81.20;;;;;;5045808;28;20127;-76
2021/08/16 05:11:03;;;;;;;6.60;2.22;;;19.80;81.20;;;;;;5051657;28;20028;-75
2021/08/16 05:13:29;;;;;;;13.80;3.05;;;19.80;81.30;;;;;;5049098;28;20302;-75
2021/08/16 05:15:55;;;;;;;6.95;2.22;;;19.80;81.30;;;;;;5048254;28;20021;-75
2021/08/16 05:18:20;;;;;;;3.97;1.15;;;19.80;81.30;;;;;;5052011;28;20079;-75
2021/08/16 05:20:46;;;;;;;9.35;1.48;;;19.80;80.90;;;;;;5050335;28;20037;-75
2021/08/16 05:23:12;;;;;;;6.05;2.08;;;19.70;80.80;;;;;;5048469;28;20059;-75
2021/08/16 05:25:37;;;;;;;9.38;2.20;;;19.80;81.10;;;;;;5051924;28;20029;-75
2021/08/16 05:28:04;;;;;;;5.97;2.03;;;19.70;81.20;;;;;;5048847;28;20488;-75
2021/08/16 05:30:30;;;;;;;7.18;2.40;;;19.80;81.30;;;;;;5047849;28;20484;-75
2021/08/16 05:32:59;;;;;;;9.15;2.60;;;19.70;81.30;;;;;;5044889;28;20041;-75
2021/08/16 05:35:25;;;;;;;6.05;2.33;;;19.70;81.60;;;;;;5049330;28;20083;-76
2021/08/16 05:37:50;;;;;;;6.15;1.67;;;19.70;81.70;;;;;;5048922;28;20476;-75
2021/08/16 05:40:16;;;;;;;9.55;2.40;;;19.70;81.40;;;;;;5050341;28;20044;-75
2021/08/16 05:42:42;;;;;;;4.20;1.98;;;19.70;81.80;;;;;;5048399;28;20496;-78
2021/08/16 05:45:08;;;;;;;3.47;2.20;;;19.70;81.50;;;;;;5050542;28;20049;-75
2021/08/16 05:47:33;;;;;;;8.07;1.92;;;19.70;81.70;;;;;;5050701;28;20408;-76
2021/08/16 05:50:00;;;;;;;7.30;2.50;;;19.70;81.90;;;;;;5051261;28;20171;-75
2021/08/16 05:52:26;;;;;;;3.15;1.58;;;19.70;82.00;;;;;;5051361;28;20124;-75
2021/08/16 05:54:52;;;;;;;2.42;1.02;;;19.70;82.10;;;;;;5038355;28;20151;-78
2021/08/16 05:57:17;;;;;;;3.03;1.40;;;19.70;82.00;;;;;;5051292;28;20472;-75
2021/08/16 05:59:43;;;;;;;6.65;1.33;;;19.70;82.30;;;;;;5045684;28;20033;-75
2021/08/16 06:02:09;;;;;;;6.18;2.08;;;19.70;82.30;;;;;;5050739;28;20046;-74
2021/08/16 06:04:34;;;;;;;6.82;1.95;;;19.70;82.60;;;;;;5050663;28;20033;-74
2021/08/16 06:07:03;;;;;;;1.77;1.02;;;19.70;82.50;;;;;;5042309;28;20022;-74
2021/08/16 06:09:29;;;;;;;5.05;1.25;;;19.70;82.80;;;;;;5051104;28;20120;-75
2021/08/16 06:11:55;;;;;;;2.97;1.58;;;19.60;83.00;;;;;;5050853;28;20033;-75
2021/08/16 06:14:21;;;;;;;2.28;1.17;;;19.60;83.50;;;;;;5050633;28;20048;-74
2021/08/16 06:16:46;;;;;;;5.95;1.58;;;19.60;83.60;;;;;;5048401;28;20035;-72
2021/08/16 06:19:12;;;;;;;3.42;1.63;;;19.60;83.90;;;;;;5050800;28;20036;-73
2021/08/16 06:21:42;;;;;;;2.58;1.35;;;19.50;84.20;;;;;;5051834;28;20067;-80
2021/08/16 06:24:08;;;;;;;5.97;2.42;;;19.50;85.20;;;;;;5046722;28;20034;-75
2021/08/16 06:26:33;;;;;;;1.10;0.73;;;19.50;84.90;;;;;;5035421;28;20037;-75
2021/08/16 06:28:59;;;;;;;4.50;1.38;;;19.50;85.10;;;;;;5036437;28;20066;-76
2021/08/16 06:31:24;;;;;;;3.90;1.77;;;19.40;85.10;;;;;;5034343;28;20488;-77
2021/08/16 06:33:50;;;;;;;1.65;1.05;;;19.40;85.40;;;;;;5049982;28;20040;-76
2021/08/16 06:36:18;;;;;;;3.08;1.42;;;19.40;85.80;;;;;;5050430;28;20029;-79
2021/08/16 06:38:46;;;;;;;4.75;2.13;;;19.40;86.20;;;;;;5049966;28;20065;-74
2021/08/16 06:41:15;;;;;;;2.30;1.80;;;19.30;86.60;;;;;;5050155;28;20021;-76
2021/08/16 06:43:41;;;;;;;4.47;1.58;;;19.20;86.80;;;;;;5050988;28;20040;-76
2021/08/16 06:46:06;;;;;;;3.35;1.20;;;19.20;86.90;;;;;;5047909;28;20369;-77
2021/08/16 06:48:35;;;;;;;0.43;0.43;;;19.30;87.10;;;;;;5046111;28;20073;-77
2021/08/16 06:51:00;;;;;;;1.80;1.20;;;19.20;87.60;;;;;;5048537;28;20025;-76
2021/08/16 06:53:26;;;;;;;3.38;1.27;;;19.20;86.90;;;;;;5049235;28;20377;-76
2021/08/16 06:55:55;;;;;;;2.15;1.35;;;19.20;87.00;;;;;;5048942;28;20028;-75
2021/08/16 06:58:20;;;;;;;1.15;0.90;;;19.30;87.00;;;;;;5047597;28;20087;-75
2021/08/16 07:00:46;;;;;;;1.20;0.80;;;19.20;87.00;;;;;;5048419;28;20021;-76
2021/08/16 07:03:12;;;;;;;2.10;0.70;;;19.20;86.90;;;;;;5049572;28;20114;-75
2021/08/16 07:05:45;;;;;;;1.13;1.00;;;19.20;86.90;;;;;;5049410;28;20540;-74
2021/08/16 07:08:14;;;;;;;1.08;0.98;;;19.30;87.00;;;;;;5047211;28;20041;-76
2021/08/16 07:10:40;;;;;;;1.38;1.00;;;19.30;87.00;;;;;;5049087;28;20056;-75
2021/08/16 07:13:06;;;;;;;1.27;0.75;;;19.30;87.00;;;;;;5046911;28;20222;-76
2021/08/16 07:15:32;;;;;;;1.38;1.02;;;19.30;87.20;;;;;;5047107;28;20025;-81
2021/08/16 07:17:57;;;;;;;1.63;1.33;;;19.30;87.40;;;;;;5049677;28;20031;-75
2021/08/16 07:20:23;;;;;;;4.13;1.20;;;19.20;87.60;;;;;;5051829;28;20094;-78
2021/08/16 07:22:49;;;;;;;4.50;1.17;;;19.20;87.60;;;;;;5053026;28;20044;-76
2021/08/16 07:25:14;;;;;;;2.03;1.02;;;19.20;87.60;;;;;;5051582;28;20075;-76
2021/08/16 07:27:40;;;;;;;4.10;1.27;;;19.20;87.60;;;;;;5049769;28;20498;-76
2021/08/16 07:30:07;;;;;;;1.08;0.90;;;19.30;87.70;;;;;;5050198;28;20554;-76
2021/08/16 07:32:32;;;;;;;1.88;1.20;;;19.20;87.80;;;;;;5048971;28;20073;-80
2021/08/16 07:34:58;;;;;;;2.85;1.20;;;19.20;88.20;;;;;;5048593;28;20102;-75
2021/08/16 07:37:24;;;;;;;1.80;1.13;;;19.20;88.40;;;;;;5050348;28;20052;-76
2021/08/16 07:39:49;;;;;;;3.25;1.30;;;19.20;88.50;;;;;;5047352;28;20033;-75
2021/08/16 07:42:15;;;;;;;1.90;1.13;;;19.20;88.60;;;;;;5050738;28;20048;-75
2021/08/16 07:44:41;;;;;;;2.63;1.08;;;19.20;88.70;;;;;;5052499;28;20064;-76
2021/08/16 07:47:06;;;;;;;3.17;1.48;;;19.20;88.80;;;;;;5052835;28;20088;-76
2021/08/16 07:49:32;;;;;;;3.30;1.15;;;19.10;88.90;;;;;;5045894;28;20138;-75
2021/08/16 07:51:58;;;;;;;6.70;1.45;;;19.10;89.20;;;;;;5046950;28;20025;-75
2021/08/16 07:54:24;;;;;;;3.60;1.23;;;19.10;89.20;;;;;;5050163;28;20056;-75
2021/08/16 07:56:51;;;;;;;1.65;0.95;;;19.10;89.60;;;;;;5051618;28;20029;-75
2021/08/16 07:59:19;;;;;;;1.77;1.15;;;19.10;89.90;;;;;;5051483;28;20039;-75
2021/08/16 08:01:45;;;;;;;1.08;0.57;;;19.10;90.00;;;;;;5048610;28;20025;-76
2021/08/16 08:04:11;;;;;;;1.33;0.60;;;19.10;89.80;;;;;;5052376;28;20025;-75
2021/08/16 08:06:38;;;;;;;0.77;0.50;;;19.10;89.40;;;;;;5051969;28;20024;-75
2021/08/16 08:09:04;;;;;;;0.38;0.38;;;19.20;89.10;;;;;;5051539;28;20028;-75
2021/08/16 08:11:29;;;;;;;3.47;1.08;;;19.20;88.70;;;;;;5051539;28;20441;-75
2021/08/16 08:13:55;;;;;;;3.63;0.73;;;19.20;88.50;;;;;;5051863;28;20079;-75
2021/08/16 08:16:21;;;;;;;8.38;1.50;;;19.30;88.50;;;;;;5051099;28;20059;-75
2021/08/16 08:18:46;;;;;;;3.97;1.65;;;19.30;88.10;;;;;;5052909;28;20491;-75
2021/08/16 08:21:12;;;;;;;5.90;1.17;;;19.30;87.70;;;;;;5050658;28;20036;-75
2021/08/16 08:23:38;;;;;;;5.15;1.67;;;19.30;87.30;;;;;;5051166;28;20383;-75
2021/08/16 08:26:04;;;;;;;3.40;1.42;;;19.20;87.30;;;;;;5051922;28;20585;-75
2021/08/16 08:28:30;;;;;;;3.90;1.15;;;19.20;87.30;;;;;;5052776;28;20036;-75
2021/08/16 08:30:55;;;;;;;3.58;1.48;;;19.20;87.40;;;;;;5050633;28;20021;-75
2021/08/16 08:33:21;;;;;;;6.45;1.80;;;19.10;87.30;;;;;;5052460;28;20044;-75
2021/08/16 08:35:48;;;;;;;9.68;1.85;;;19.10;87.00;;;;;;5050633;28;20029;-75
2021/08/16 08:38:14;;;;;;;3.72;1.50;;;19.10;87.20;;;;;;5047247;28;20037;-75
2021/08/16 08:40:40;;;;;;;3.25;1.48;;;19.10;87.10;;;;;;5049679;28;20028;-75
2021/08/16 08:43:09;;;;;;;3.72;1.70;;;19.20;87.00;;;;;;5047613;28;20120;-74
2021/08/16 08:45:35;;;;;;;1.60;1.10;;;19.20;86.90;;;;;;5046991;28;20025;-75
2021/08/16 08:48:01;;;;;;;3.53;1.70;;;19.30;86.70;;;;;;5062798;28;20057;-75
2021/08/16 08:50:27;;;;;;;5.57;1.80;;;19.20;86.30;;;;;;5048491;28;20112;-74
2021/08/16 08:52:59;;;;;;;2.33;0.80;;;19.30;85.80;;;;;;5048645;28;20128;-75
2021/08/16 08:55:25;;;;;;;5.35;1.67;;;19.30;85.70;;;;;;5048460;28;20029;-74
2021/08/16 08:57:51;;;;;;;7.22;1.98;;;19.30;85.40;;;;;;5049519;28;20029;-79
2021/08/16 09:00:20;;;;;;;6.50;1.75;;;19.40;85.10;;;;;;5050353;28;20025;-74
2021/08/16 09:02:59;;;;;;;2.13;1.30;;;19.40;84.60;;;;;;5041432;28;20031;-74
2021/08/16 09:05:25;;;;;;;6.78;1.60;;;19.40;84.30;;;;;;5048443;28;20582;-74
2021/08/16 09:07:51;;;;;;;6.38;2.13;;;19.40;83.80;;;;;;5046746;28;20025;-74
2021/08/16 09:10:17;;;;;;;6.32;1.60;;;19.50;83.20;;;;;;5050645;28;20079;-76
2021/08/16 09:12:44;;;;;;;3.88;1.38;;;19.40;83.60;;;;;;5050041;28;20439;-78
2021/08/16 09:15:22;;;;;;;4.18;1.08;;;19.50;83.40;;;;;;5048720;28;20051;-77
2021/08/16 09:17:49;;;;;;;6.47;1.70;;;19.40;83.40;;;;;;5046998;28;20041;-74
2021/08/16 09:20:21;;;;;;;5.60;2.13;;;19.50;83.00;;;;;;5048033;28;20060;-73
2021/08/16 09:23:15;;;;;;;6.38;1.40;;;19.60;83.40;;;;;;5050111;28;20063;-74
2021/08/16 09:25:54;;;;;;;5.10;2.20;;;19.60;83.00;;;;;;5045852;28;20024;-74
2021/08/16 09:28:31;;;;;;;4.85;1.60;;;19.60;83.10;;;;;;5047444;28;20055;-75
2021/08/16 09:31:14;;;;;;;5.68;1.17;;;19.70;81.90;;;;;;5049149;28;20021;-74
2021/08/16 09:33:52;;;;;;;5.93;1.52;;;19.70;81.50;;;;;;5047622;28;20067;-74
2021/08/16 09:36:17;;;;;;;2.67;1.10;;;19.70;81.60;;;;;;5049574;28;20025;-79
2021/08/16 09:38:43;;;;;;;5.38;1.65;;;19.70;81.80;;;;;;5049081;28;20380;-79
2021/08/16 09:41:23;;;;;;;3.65;0.90;;;19.70;81.70;;;;;;5048781;28;20028;-79
2021/08/16 09:44:04;;;;;;;9.77;1.40;;;19.70;81.70;;;;;;5050288;28;20029;-79
2021/08/16 09:46:30;;;;;;;4.60;1.23;;;19.80;81.60;;;;;;5044241;28;20037;-78
2021/08/16 09:48:57;;;;;;;5.75;1.80;;;19.80;81.60;;;;;;5048569;28;20021;-79
2021/08/16 09:51:24;;;;;;;2.17;0.75;;;19.80;81.70;;;;;;5036986;28;20053;-79
2021/08/16 09:53:50;;;;;;;6.95;1.67;;;19.80;81.60;;;;;;5038317;28;20066;-79
2021/08/16 09:56:18;;;;;;;5.07;1.30;;;19.90;81.60;;;;;;5050730;28;20649;-79
2021/08/16 09:58:44;;;;;;;2.90;0.95;;;19.90;81.60;;;;;;5051828;28;20032;-79
2021/08/16 10:01:09;;;;;;;6.05;1.65;;;19.80;81.80;;;;;;5041439;28;20475;-79
2021/08/16 10:03:39;;;;;;;6.45;1.73;;;19.70;81.70;;;;;;5052150;28;20036;-78
2021/08/16 10:06:06;;;;;;;10.40;1.67;;;19.70;81.90;;;;;;5050159;28;20379;-78
2021/08/16 10:08:38;;;;;;;6.82;1.73;;;19.70;81.80;;;;;;5049716;28;20468;-79
2021/08/16 10:11:05;;;;;;;0.73;0.50;;;19.80;82.00;;;;;;5045541;28;20025;-79
2021/08/16 10:13:34;;;;;;;7.65;1.58;;;19.80;81.80;;;;;;5048750;28;20041;-78
2021/08/16 10:16:08;;;;;;;6.05;1.67;;;19.80;82.00;;;;;;5047699;28;20365;-78
2021/08/16 10:18:41;;;;;;;5.78;1.33;;;19.70;82.00;;;;;;5047705;28;20060;-76
2021/08/16 10:21:10;;;;;;;9.38;2.00;;;19.80;82.10;;;;;;5044763;28;20499;-76
2021/08/16 10:23:49;;;;;;;13.88;2.50;;;19.80;82.30;;;;;;5042553;28;20041;-75
2021/08/16 10:26:31;;;;;;;8.45;1.98;;;19.80;82.50;;;;;;5049431;28;20029;-76
2021/08/16 10:29:03;;;;;;;7.10;2.13;;;19.90;82.20;;;;;;5048976;28;20116;-76
2021/08/16 10:31:35;;;;;;;11.90;2.30;;;19.90;81.10;;;;;;5047589;28;20659;-76
2021/08/16 10:34:01;;;;;;;3.92;1.38;;;19.90;80.60;;;;;;5043662;28;20071;-75
2021/08/16 10:36:31;;;;;;;6.88;1.92;;;19.90;80.40;;;;;;5045335;28;20036;-75
2021/08/16 10:39:01;;;;;;;6.18;1.80;;;19.90;80.10;;;;;;5049689;28;20048;-75
2021/08/16 10:41:44;;;;;;;13.82;2.50;;;19.90;78.80;;;;;;5051386;28;20032;-75
2021/08/16 10:44:15;;;;;;;14.05;2.53;;;19.90;77.40;;;;;;5049459;28;20025;-76
2021/08/16 10:46:44;;;;;;;9.70;2.00;;;19.90;78.30;;;;;;5043043;28;20949;-76
2021/08/16 10:49:12;;;;;;;9.23;2.30;;;19.90;76.80;;;;;;5045318;28;20104;-76
2021/08/16 10:51:44;;;;;;;7.82;1.98;;;19.90;76.20;;;;;;5050104;28;20057;-76
2021/08/16 10:54:25;;;;;;;8.65;2.00;;;19.80;77.10;;;;;;5054481;28;20049;-76
2021/08/16 10:56:52;;;;;;;4.88;1.42;;;19.80;76.90;;;;;;5043169;28;20025;-75
2021/08/16 10:59:24;;;;;;;14.20;1.92;;;19.80;77.10;;;;;;5054316;28;20033;-75
2021/08/16 11:01:50;;;;;;;6.75;1.92;;;19.80;76.70;;;;;;5042786;28;20058;-73
2021/08/16 11:04:33;;;;;;;7.75;1.67;;;19.80;75.20;;;;;;5052175;28;20760;-79
2021/08/16 11:07:00;;;;;;;5.32;1.95;;;19.80;75.40;;;;;;5054064;28;20025;-76
2021/08/16 11:09:31;;;;;;;7.90;1.58;;;19.80;76.00;;;;;;5051101;28;20480;-75
2021/08/16 11:12:04;;;;;;;5.72;1.58;;;19.80;75.10;;;;;;5048540;28;20476;-78
2021/08/16 11:14:30;;;;;;;;;;;19.80;75.10;;;;;;5051202;28;20051;-76
2021/08/16 11:16:56;;;;;;;10.13;2.35;;;19.80;76.20;;;;;;5053429;28;19915;-76
2021/08/16 11:19:23;;;;;;;4.80;1.67;;;19.80;74.10;;;;;;5053339;28;20025;-76
2021/08/16 11:22:07;;;;;;;11.55;2.42;;;19.90;73.80;;;;;;5053965;28;20059;-77
2021/08/16 11:24:36;;;;;;;;;;;19.80;74.20;;;;;;5052974;28;20121;-78
2021/08/16 11:27:06;;;;;;;7.30;1.75;;;19.90;75.30;;;;;;5050951;28;19913;-77
2021/08/16 11:29:33;;;;;;;5.93;1.58;;;19.90;74.00;;;;;;5050708;28;20442;-75
2021/08/16 11:32:02;;;;;;;8.60;1.85;;;19.90;74.10;;;;;;5051813;28;20028;-75
2021/08/16 11:34:50;;;;;;;8.80;2.03;;;19.90;73.70;;;;;;5051220;28;20037;-75
2021/08/16 11:37:17;;;;;;;9.82;2.65;;;19.90;74.30;;;;;;5048805;28;20036;-75
2021/08/16 11:39:46;;;;;;;9.43;2.22;;;19.90;74.30;;;;;;5047856;28;20483;-75
2021/08/16 11:42:13;;;;;;;6.00;1.83;;;20.00;73.80;;;;;;5048748;28;20037;-75
2021/08/16 11:44:39;;;;;;;10.18;2.10;;;20.00;74.90;;;;;;5040268;28;20056;-75
2021/08/16 11:47:05;;;;;;;6.15;1.75;;;20.10;74.50;;;;;;5046527;28;20122;-75
2021/08/16 11:49:36;;;;;;;4.47;1.45;;;20.00;72.90;;;;;;5050912;28;20494;-75
2021/08/16 11:52:05;;;;;;;;;;;20.00;73.00;;;;;;5053252;28;20032;-75
2021/08/16 11:54:36;;;;;;;9.20;1.98;;;20.10;73.50;;;;;;5052167;28;19917;-75
2021/08/16 11:57:04;;;;;;;4.93;1.48;;;20.10;73.50;;;;;;5052757;28;20033;-75
2021/08/16 11:59:30;;;;;;;11.35;1.65;;;20.10;73.30;;;;;;5054555;28;20102;-75
2021/08/16 12:02:01;;;;;;;8.52;2.08;;;20.10;73.80;;;;;;5051586;28;20021;-75
2021/08/16 12:04:27;;;;;;;5.03;1.48;;;20.10;73.80;;;;;;5052173;28;20078;-76
2021/08/16 12:06:54;;;;;;;10.68;2.10;;;20.10;73.90;;;;;;5041625;28;20419;-76
2021/08/16 12:09:21;;;;;;;10.48;1.58;;;20.10;71.40;;;;;;5044285;28;20036;-76
2021/08/16 12:12:17;;;;;;;7.75;2.00;;;20.20;72.20;;;;;;5052965;28;20442;-76
2021/08/16 12:14:42;;;;;;;4.82;1.08;;;20.20;71.10;;;;;;5035636;28;20400;-75
2021/08/16 12:17:08;;;;;;;7.93;2.17;;;20.20;71.50;;;;;;5050587;28;20037;-75
2021/08/16 12:19:35;;;;;;;7.65;1.98;;;20.20;70.20;;;;;;5053604;28;20029;-75
2021/08/16 12:22:09;;;;;;;4.30;0.93;;;20.20;69.20;;;;;;5041059;28;20041;-74
2021/08/16 12:24:37;;;;;;;15.15;2.35;;;20.20;71.20;;;;;;5052669;28;20108;-75
2021/08/16 12:27:04;;;;;;;13.15;1.75;;;20.30;71.30;;;;;;5040586;28;20109;-75
2021/08/16 12:29:39;;;;;;;10.73;2.83;;;20.30;72.00;;;;;;5034321;28;20060;-76
2021/08/16 12:32:20;;;;;;;4.00;0.77;;;20.40;71.70;;;;;;5045551;28;20041;-78
2021/08/16 12:34:47;;;;;;;8.68;1.25;;;20.40;72.40;;;;;;5051689;28;20043;-75
2021/08/16 12:37:32;;;;;;;7.53;1.27;;;20.40;71.50;;;;;;5052361;28;20037;-75
2021/08/16 12:40:24;;;;;;;3.35;0.73;;;20.40;70.90;;;;;;5036444;28;20025;-75
2021/08/16 12:42:58;;;;;;;8.00;1.45;;;20.40;70.20;;;;;;5045247;28;20048;-75
2021/08/16 12:45:24;;;;;;;9.15;2.05;;;20.40;69.20;;;;;;5044248;28;20076;-75
2021/08/16 12:48:05;;;;;;;5.93;1.48;;;20.40;70.20;;;;;;5049520;28;20056;-75